sensor_id;sensor_type;location;lat;lon;timestamp;P1;durP1;ratioP1;P2;durP2;ratioP2
49340;SDS011;35209;51.050;13.678;2023-07-13T00:01:04;3.65;;;0.90;;
49340;SDS011;35209;51.050;13.678;2023-07-13T00:06:07;2.00;;;0.98;;
49340;SDS011;35209;51.050;13.678;2023-07-13T00:11:10;0.65;;;0.63;;
49340;SDS011;35209;51.050;13.678;2023-07-13T00:16:13;2.15;;;1.10;;
49340;SDS011;35209;51.050;13.678;2023-07-13T00:21:15;2.08;;;1.00;;
49340;SDS011;35209;51.050;13.678;2023-07-13T00:26:17;1.27;;;0.70;;
49340;SDS011;35209;51.050;13.678;2023-07-13T00:31:19;1.20;;;1.00;;
49340;SDS011;35209;51.050;13.678;2023-07-13T00:36:21;2.35;;;1.00;;
49340;SDS011;35209;51.050;13.678;2023-07-13T00:41:24;4.15;;;0.90;;
49340;SDS011;35209;51.050;13.678;2023-07-13T00:46:27;3.15;;;1.40;;
49340;SDS011;35209;51.050;13.678;2023-07-13T00:51:32;1.88;;;1.17;;
49340;SDS011;35209;51.050;13.678;2023-07-13T00:56:38;4.35;;;1.30;;
49340;SDS011;35209;51.050;13.678;2023-07-13T01:01:42;2.13;;;1.52;;
49340;SDS011;35209;51.050;13.678;2023-07-13T01:06:44;3.55;;;1.55;;
49340;SDS011;35209;51.050;13.678;2023-07-13T01:11:48;3.10;;;1.33;;
49340;SDS011;35209;51.050;13.678;2023-07-13T01:16:50;2.90;;;1.52;;
49340;SDS011;35209;51.050;13.678;2023-07-13T01:21:53;1.50;;;1.40;;
49340;SDS011;35209;51.050;13.678;2023-07-13T01:26:55;1.58;;;1.40;;
49340;SDS011;35209;51.050;13.678;2023-07-13T01:31:56;1.35;;;0.98;;
49340;SDS011;35209;51.050;13.678;2023-07-13T01:36:59;1.45;;;1.30;;
49340;SDS011;35209;51.050;13.678;2023-07-13T01:42:02;2.40;;;1.60;;
49340;SDS011;35209;51.050;13.678;2023-07-13T01:47:04;2.33;;;1.50;;
49340;SDS011;35209;51.050;13.678;2023-07-13T01:52:07;2.42;;;1.50;;
49340;SDS011;35209;51.050;13.678;2023-07-13T01:57:09;1.45;;;1.30;;
49340;SDS011;35209;51.050;13.678;2023-07-13T02:02:10;1.52;;;1.10;;
49340;SDS011;35209;51.050;13.678;2023-07-13T02:07:12;1.35;;;1.25;;
49340;SDS011;35209;51.050;13.678;2023-07-13T02:12:14;1.58;;;1.10;;
49340;SDS011;35209;51.050;13.678;2023-07-13T02:17:16;2.15;;;1.30;;
49340;SDS011;35209;51.050;13.678;2023-07-13T02:22:18;1.67;;;1.30;;
49340;SDS011;35209;51.050;13.678;2023-07-13T02:27:20;1.52;;;1.27;;
49340;SDS011;35209;51.050;13.678;2023-07-13T02:32:22;1.65;;;1.23;;
49340;SDS011;35209;51.050;13.678;2023-07-13T02:37:26;1.33;;;1.00;;
49340;SDS011;35209;51.050;13.678;2023-07-13T02:42:28;2.80;;;1.13;;
49340;SDS011;35209;51.050;13.678;2023-07-13T02:47:31;2.60;;;1.40;;
49340;SDS011;35209;51.050;13.678;2023-07-13T02:52:34;2.88;;;1.38;;
49340;SDS011;35209;51.050;13.678;2023-07-13T02:57:35;2.33;;;1.20;;
49340;SDS011;35209;51.050;13.678;2023-07-13T03:02:37;2.67;;;1.70;;
49340;SDS011;35209;51.050;13.678;2023-07-13T03:07:40;3.13;;;2.20;;
49340;SDS011;35209;51.050;13.678;2023-07-13T03:12:43;3.00;;;1.52;;
49340;SDS011;35209;51.050;13.678;2023-07-13T03:17:53;2.95;;;1.75;;
49340;SDS011;35209;51.050;13.678;2023-07-13T03:22:55;2.63;;;1.70;;
49340;SDS011;35209;51.050;13.678;2023-07-13T03:27:57;2.75;;;1.77;;
49340;SDS011;35209;51.050;13.678;2023-07-13T03:32:59;1.90;;;1.38;;
49340;SDS011;35209;51.050;13.678;2023-07-13T03:38:01;2.35;;;1.90;;
49340;SDS011;35209;51.050;13.678;2023-07-13T03:43:03;2.08;;;1.75;;
49340;SDS011;35209;51.050;13.678;2023-07-13T03:48:06;1.70;;;1.60;;
49340;SDS011;35209;51.050;13.678;2023-07-13T03:53:08;2.75;;;1.58;;
49340;SDS011;35209;51.050;13.678;2023-07-13T04:03:54;3.22;;;1.50;;
49340;SDS011;35209;51.050;13.678;2023-07-13T04:08:59;4.43;;;1.20;;
49340;SDS011;35209;51.050;13.678;2023-07-13T04:14:02;2.35;;;1.65;;
49340;SDS011;35209;51.050;13.678;2023-07-13T04:19:04;2.28;;;1.35;;
49340;SDS011;35209;51.050;13.678;2023-07-13T04:24:05;1.95;;;1.30;;
49340;SDS011;35209;51.050;13.678;2023-07-13T04:29:07;1.63;;;1.35;;
49340;SDS011;35209;51.050;13.678;2023-07-13T04:34:09;2.38;;;1.35;;
49340;SDS011;35209;51.050;13.678;2023-07-13T04:39:11;2.45;;;1.52;;
49340;SDS011;35209;51.050;13.678;2023-07-13T04:44:12;2.05;;;1.60;;
49340;SDS011;35209;51.050;13.678;2023-07-13T04:49:14;1.90;;;1.38;;
49340;SDS011;35209;51.050;13.678;2023-07-13T04:54:16;2.78;;;1.40;;
49340;SDS011;35209;51.050;13.678;2023-07-13T04:59:18;1.95;;;1.40;;
49340;SDS011;35209;51.050;13.678;2023-07-13T05:04:20;3.53;;;1.20;;
49340;SDS011;35209;51.050;13.678;2023-07-13T05:09:21;1.70;;;1.58;;
49340;SDS011;35209;51.050;13.678;2023-07-13T05:14:23;1.70;;;1.30;;
49340;SDS011;35209;51.050;13.678;2023-07-13T05:19:25;1.55;;;1.30;;
49340;SDS011;35209;51.050;13.678;2023-07-13T05:24:27;3.90;;;1.60;;
49340;SDS011;35209;51.050;13.678;2023-07-13T05:29:29;3.13;;;1.52;;
49340;SDS011;35209;51.050;13.678;2023-07-13T05:34:31;4.38;;;1.48;;
49340;SDS011;35209;51.050;13.678;2023-07-13T05:39:33;2.13;;;1.30;;
49340;SDS011;35209;51.050;13.678;2023-07-13T05:44:35;3.38;;;1.33;;
49340;SDS011;35209;51.050;13.678;2023-07-13T05:49:37;3.05;;;1.40;;
49340;SDS011;35209;51.050;13.678;2023-07-13T05:54:39;3.65;;;1.73;;
49340;SDS011;35209;51.050;13.678;2023-07-13T05:59:40;2.78;;;1.30;;
49340;SDS011;35209;51.050;13.678;2023-07-13T06:04:42;2.20;;;1.13;;
49340;SDS011;35209;51.050;13.678;2023-07-13T06:09:44;3.58;;;1.38;;
49340;SDS011;35209;51.050;13.678;2023-07-13T06:14:45;5.72;;;1.48;;
49340;SDS011;35209;51.050;13.678;2023-07-13T06:19:47;3.30;;;1.83;;
49340;SDS011;35209;51.050;13.678;2023-07-13T06:24:49;3.63;;;1.40;;
49340;SDS011;35209;51.050;13.678;2023-07-13T06:29:51;2.72;;;1.25;;
49340;SDS011;35209;51.050;13.678;2023-07-13T06:34:52;2.53;;;1.25;;
49340;SDS011;35209;51.050;13.678;2023-07-13T06:39:54;4.45;;;1.17;;
49340;SDS011;35209;51.050;13.678;2023-07-13T06:44:56;3.50;;;1.52;;
49340;SDS011;35209;51.050;13.678;2023-07-13T06:49:58;4.82;;;1.35;;
49340;SDS011;35209;51.050;13.678;2023-07-13T06:55:01;3.80;;;1.20;;
49340;SDS011;35209;51.050;13.678;2023-07-13T07:00:03;5.10;;;1.27;;
49340;SDS011;35209;51.050;13.678;2023-07-13T07:05:08;1.58;;;0.90;;
49340;SDS011;35209;51.050;13.678;2023-07-13T07:10:10;2.80;;;1.38;;
49340;SDS011;35209;51.050;13.678;2023-07-13T07:15:11;4.45;;;1.10;;
49340;SDS011;35209;51.050;13.678;2023-07-13T07:20:14;2.28;;;1.10;;
49340;SDS011;35209;51.050;13.678;2023-07-13T07:25:15;2.33;;;1.00;;
49340;SDS011;35209;51.050;13.678;2023-07-13T07:30:17;2.00;;;0.90;;
49340;SDS011;35209;51.050;13.678;2023-07-13T07:35:22;4.97;;;1.13;;
49340;SDS011;35209;51.050;13.678;2023-07-13T07:40:24;1.98;;;0.90;;
49340;SDS011;35209;51.050;13.678;2023-07-13T07:45:29;3.05;;;1.20;;
49340;SDS011;35209;51.050;13.678;2023-07-13T07:50:31;2.53;;;1.33;;
49340;SDS011;35209;51.050;13.678;2023-07-13T07:55:34;1.83;;;0.85;;
49340;SDS011;35209;51.050;13.678;2023-07-13T08:00:41;1.63;;;0.95;;
49340;SDS011;35209;51.050;13.678;2023-07-13T08:06:03;2.70;;;0.80;;
49340;SDS011;35209;51.050;13.678;2023-07-13T08:11:08;2.10;;;0.63;;
49340;SDS011;35209;51.050;13.678;2023-07-13T08:16:13;1.67;;;0.70;;
49340;SDS011;35209;51.050;13.678;2023-07-13T08:21:14;3.75;;;1.10;;
49340;SDS011;35209;51.050;13.678;2023-07-13T08:26:16;1.83;;;0.90;;
49340;SDS011;35209;51.050;13.678;2023-07-13T08:31:18;3.70;;;1.10;;
49340;SDS011;35209;51.050;13.678;2023-07-13T08:36:20;4.15;;;1.20;;
49340;SDS011;35209;51.050;13.678;2023-07-13T08:41:22;4.15;;;0.90;;
49340;SDS011;35209;51.050;13.678;2023-07-13T08:51:43;2.75;;;1.00;;
49340;SDS011;35209;51.050;13.678;2023-07-13T08:56:50;1.48;;;0.98;;
49340;SDS011;35209;51.050;13.678;2023-07-13T09:17:19;2.45;;;0.70;;
49340;SDS011;35209;51.050;13.678;2023-07-13T09:22:25;2.83;;;0.95;;
49340;SDS011;35209;51.050;13.678;2023-07-13T09:27:33;1.75;;;0.68;;
49340;SDS011;35209;51.050;13.678;2023-07-13T09:32:45;2.00;;;0.90;;
49340;SDS011;35209;51.050;13.678;2023-07-13T09:37:51;1.17;;;0.77;;
49340;SDS011;35209;51.050;13.678;2023-07-13T09:43:01;3.05;;;1.10;;
49340;SDS011;35209;51.050;13.678;2023-07-13T09:48:07;2.65;;;1.00;;
49340;SDS011;35209;51.050;13.678;2023-07-13T09:53:18;3.35;;;1.20;;
49340;SDS011;35209;51.050;13.678;2023-07-13T09:58:24;2.58;;;0.98;;
49340;SDS011;35209;51.050;13.678;2023-07-13T10:03:31;2.03;;;0.95;;
49340;SDS011;35209;51.050;13.678;2023-07-13T10:08:39;2.22;;;0.80;;
49340;SDS011;35209;51.050;13.678;2023-07-13T10:13:42;1.45;;;0.80;;
49340;SDS011;35209;51.050;13.678;2023-07-13T10:23:50;2.78;;;1.00;;
49340;SDS011;35209;51.050;13.678;2023-07-13T10:28:56;2.95;;;0.98;;
49340;SDS011;35209;51.050;13.678;2023-07-13T10:34:00;1.77;;;0.90;;
49340;SDS011;35209;51.050;13.678;2023-07-13T10:39:03;3.00;;;1.00;;
49340;SDS011;35209;51.050;13.678;2023-07-13T10:44:09;2.22;;;0.80;;
49340;SDS011;35209;51.050;13.678;2023-07-13T10:49:19;2.25;;;0.70;;
49340;SDS011;35209;51.050;13.678;2023-07-13T10:59:29;2.83;;;0.68;;
49340;SDS011;35209;51.050;13.678;2023-07-13T11:04:47;3.80;;;0.73;;
49340;SDS011;35209;51.050;13.678;2023-07-13T11:09:57;1.77;;;0.65;;
49340;SDS011;35209;51.050;13.678;2023-07-13T11:15:02;2.30;;;1.05;;
49340;SDS011;35209;51.050;13.678;2023-07-13T11:25:30;3.13;;;0.85;;
49340;SDS011;35209;51.050;13.678;2023-07-13T11:30:39;2.85;;;0.82;;
49340;SDS011;35209;51.050;13.678;2023-07-13T11:41:01;3.47;;;1.00;;
49340;SDS011;35209;51.050;13.678;2023-07-13T11:46:12;0.88;;;0.70;;
49340;SDS011;35209;51.050;13.678;2023-07-13T11:51:27;3.45;;;0.82;;
49340;SDS011;35209;51.050;13.678;2023-07-13T11:56:35;3.17;;;0.95;;
49340;SDS011;35209;51.050;13.678;2023-07-13T12:01:43;3.00;;;0.93;;
49340;SDS011;35209;51.050;13.678;2023-07-13T12:06:47;2.97;;;0.80;;
49340;SDS011;35209;51.050;13.678;2023-07-13T12:11:56;2.80;;;0.60;;
49340;SDS011;35209;51.050;13.678;2023-07-13T12:17:00;3.15;;;0.70;;
49340;SDS011;35209;51.050;13.678;2023-07-13T12:22:02;1.60;;;0.70;;
49340;SDS011;35209;51.050;13.678;2023-07-13T12:27:04;3.20;;;1.00;;
49340;SDS011;35209;51.050;13.678;2023-07-13T12:32:08;1.45;;;0.80;;
49340;SDS011;35209;51.050;13.678;2023-07-13T12:37:11;5.47;;;1.00;;
49340;SDS011;35209;51.050;13.678;2023-07-13T12:47:29;2.20;;;0.70;;
49340;SDS011;35209;51.050;13.678;2023-07-13T12:52:32;2.20;;;0.65;;
49340;SDS011;35209;51.050;13.678;2023-07-13T12:57:39;1.95;;;0.90;;
49340;SDS011;35209;51.050;13.678;2023-07-13T13:02:50;3.03;;;1.05;;
49340;SDS011;35209;51.050;13.678;2023-07-13T13:07:57;2.30;;;0.60;;
49340;SDS011;35209;51.050;13.678;2023-07-13T13:12:59;1.80;;;0.70;;
49340;SDS011;35209;51.050;13.678;2023-07-13T13:18:00;1.67;;;0.75;;
49340;SDS011;35209;51.050;13.678;2023-07-13T13:23:02;2.83;;;0.70;;
49340;SDS011;35209;51.050;13.678;2023-07-13T13:28:04;3.83;;;1.02;;
49340;SDS011;35209;51.050;13.678;2023-07-13T13:33:13;2.72;;;1.00;;
49340;SDS011;35209;51.050;13.678;2023-07-13T13:38:20;2.85;;;0.60;;
49340;SDS011;35209;51.050;13.678;2023-07-13T13:43:25;1.48;;;0.80;;
49340;SDS011;35209;51.050;13.678;2023-07-13T13:48:32;5.43;;;0.68;;
49340;SDS011;35209;51.050;13.678;2023-07-13T13:53:36;2.47;;;0.70;;
49340;SDS011;35209;51.050;13.678;2023-07-13T13:58:38;3.53;;;1.15;;
49340;SDS011;35209;51.050;13.678;2023-07-13T14:03:40;3.25;;;0.88;;
49340;SDS011;35209;51.050;13.678;2023-07-13T14:08:42;3.47;;;0.90;;
49340;SDS011;35209;51.050;13.678;2023-07-13T14:13:45;3.78;;;1.08;;
49340;SDS011;35209;51.050;13.678;2023-07-13T14:18:51;3.65;;;0.75;;
49340;SDS011;35209;51.050;13.678;2023-07-13T14:23:52;1.83;;;0.85;;
49340;SDS011;35209;51.050;13.678;2023-07-13T14:28:55;1.23;;;0.70;;
49340;SDS011;35209;51.050;13.678;2023-07-13T14:33:59;3.10;;;0.90;;
49340;SDS011;35209;51.050;13.678;2023-07-13T14:39:04;4.85;;;1.10;;
49340;SDS011;35209;51.050;13.678;2023-07-13T14:44:16;2.05;;;0.80;;
49340;SDS011;35209;51.050;13.678;2023-07-13T14:54:27;2.60;;;0.77;;
49340;SDS011;35209;51.050;13.678;2023-07-13T14:59:29;2.95;;;0.98;;
49340;SDS011;35209;51.050;13.678;2023-07-13T15:04:32;1.65;;;0.82;;
49340;SDS011;35209;51.050;13.678;2023-07-13T15:09:34;2.15;;;0.80;;
49340;SDS011;35209;51.050;13.678;2023-07-13T15:14:35;2.05;;;0.55;;
49340;SDS011;35209;51.050;13.678;2023-07-13T15:19:37;1.20;;;0.50;;
49340;SDS011;35209;51.050;13.678;2023-07-13T15:24:39;3.17;;;0.60;;
49340;SDS011;35209;51.050;13.678;2023-07-13T15:29:41;1.30;;;0.50;;
49340;SDS011;35209;51.050;13.678;2023-07-13T15:34:44;1.65;;;0.52;;
49340;SDS011;35209;51.050;13.678;2023-07-13T15:39:47;2.38;;;0.50;;
49340;SDS011;35209;51.050;13.678;2023-07-13T15:44:49;2.00;;;0.47;;
49340;SDS011;35209;51.050;13.678;2023-07-13T15:49:51;0.82;;;0.43;;
49340;SDS011;35209;51.050;13.678;2023-07-13T15:54:52;1.55;;;0.40;;
49340;SDS011;35209;51.050;13.678;2023-07-13T15:59:55;1.60;;;0.50;;
49340;SDS011;35209;51.050;13.678;2023-07-13T16:05:01;1.02;;;0.30;;
49340;SDS011;35209;51.050;13.678;2023-07-13T16:10:02;1.95;;;0.57;;
49340;SDS011;35209;51.050;13.678;2023-07-13T16:15:08;2.25;;;0.40;;
49340;SDS011;35209;51.050;13.678;2023-07-13T16:20:17;1.33;;;0.43;;
49340;SDS011;35209;51.050;13.678;2023-07-13T16:25:23;1.40;;;0.43;;
49340;SDS011;35209;51.050;13.678;2023-07-13T16:30:27;2.43;;;0.70;;
49340;SDS011;35209;51.050;13.678;2023-07-13T16:35:38;1.42;;;0.95;;
49340;SDS011;35209;51.050;13.678;2023-07-13T16:40:44;1.88;;;0.77;;
49340;SDS011;35209;51.050;13.678;2023-07-13T16:45:46;1.67;;;0.90;;
49340;SDS011;35209;51.050;13.678;2023-07-13T16:50:53;2.50;;;1.23;;
49340;SDS011;35209;51.050;13.678;2023-07-13T16:55:58;2.50;;;1.63;;
49340;SDS011;35209;51.050;13.678;2023-07-13T17:01:01;2.63;;;1.80;;
49340;SDS011;35209;51.050;13.678;2023-07-13T17:06:18;2.72;;;1.48;;
49340;SDS011;35209;51.050;13.678;2023-07-13T17:11:25;1.52;;;1.15;;
49340;SDS011;35209;51.050;13.678;2023-07-13T17:16:28;2.17;;;1.20;;
49340;SDS011;35209;51.050;13.678;2023-07-13T17:21:32;3.22;;;1.20;;
49340;SDS011;35209;51.050;13.678;2023-07-13T17:26:34;4.93;;;1.20;;
49340;SDS011;35209;51.050;13.678;2023-07-13T17:31:36;1.70;;;0.82;;
49340;SDS011;35209;51.050;13.678;2023-07-13T17:36:39;1.35;;;1.00;;
49340;SDS011;35209;51.050;13.678;2023-07-13T17:41:41;1.00;;;0.90;;
49340;SDS011;35209;51.050;13.678;2023-07-13T17:46:44;1.27;;;1.10;;
49340;SDS011;35209;51.050;13.678;2023-07-13T17:51:48;1.98;;;0.95;;
49340;SDS011;35209;51.050;13.678;2023-07-13T17:56:51;3.40;;;0.98;;
49340;SDS011;35209;51.050;13.678;2023-07-13T18:01:53;1.13;;;0.55;;
49340;SDS011;35209;51.050;13.678;2023-07-13T18:06:55;1.80;;;0.80;;
49340;SDS011;35209;51.050;13.678;2023-07-13T18:11:57;0.90;;;0.70;;
49340;SDS011;35209;51.050;13.678;2023-07-13T18:17:00;4.40;;;1.10;;
49340;SDS011;35209;51.050;13.678;2023-07-13T18:22:03;1.17;;;0.70;;
49340;SDS011;35209;51.050;13.678;2023-07-13T18:27:12;1.60;;;0.70;;
49340;SDS011;35209;51.050;13.678;2023-07-13T18:32:15;1.00;;;0.90;;
49340;SDS011;35209;51.050;13.678;2023-07-13T18:37:22;2.10;;;0.80;;
49340;SDS011;35209;51.050;13.678;2023-07-13T18:42:24;0.90;;;0.55;;
49340;SDS011;35209;51.050;13.678;2023-07-13T18:47:26;1.92;;;0.80;;
49340;SDS011;35209;51.050;13.678;2023-07-13T18:52:34;3.28;;;1.00;;
49340;SDS011;35209;51.050;13.678;2023-07-13T18:57:36;1.13;;;0.68;;
49340;SDS011;35209;51.050;13.678;2023-07-13T19:02:37;1.95;;;0.93;;
49340;SDS011;35209;51.050;13.678;2023-07-13T19:07:40;1.35;;;0.70;;
49340;SDS011;35209;51.050;13.678;2023-07-13T19:12:43;1.45;;;0.80;;
49340;SDS011;35209;51.050;13.678;2023-07-13T19:17:48;1.63;;;1.25;;
49340;SDS011;35209;51.050;13.678;2023-07-13T19:22:55;1.00;;;0.70;;
49340;SDS011;35209;51.050;13.678;2023-07-13T19:28:02;2.20;;;0.70;;
49340;SDS011;35209;51.050;13.678;2023-07-13T19:33:24;2.28;;;0.60;;
49340;SDS011;35209;51.050;13.678;2023-07-13T19:38:27;1.33;;;0.90;;
49340;SDS011;35209;51.050;13.678;2023-07-13T19:43:29;1.05;;;0.77;;
49340;SDS011;35209;51.050;13.678;2023-07-13T19:48:31;2.13;;;0.80;;
49340;SDS011;35209;51.050;13.678;2023-07-13T19:53:33;2.28;;;0.80;;
49340;SDS011;35209;51.050;13.678;2023-07-13T19:58:36;1.70;;;1.00;;
49340;SDS011;35209;51.050;13.678;2023-07-13T20:03:38;1.45;;;0.90;;
49340;SDS011;35209;51.050;13.678;2023-07-13T20:08:40;2.70;;;1.02;;
49340;SDS011;35209;51.050;13.678;2023-07-13T20:13:42;1.75;;;1.00;;
49340;SDS011;35209;51.050;13.678;2023-07-13T20:18:44;2.28;;;0.77;;
49340;SDS011;35209;51.050;13.678;2023-07-13T20:23:48;1.23;;;0.82;;
49340;SDS011;35209;51.050;13.678;2023-07-13T20:28:50;4.03;;;1.05;;
49340;SDS011;35209;51.050;13.678;2023-07-13T20:33:52;2.28;;;0.90;;
49340;SDS011;35209;51.050;13.678;2023-07-13T20:38:54;1.40;;;1.02;;
49340;SDS011;35209;51.050;13.678;2023-07-13T20:43:56;3.50;;;1.10;;
49340;SDS011;35209;51.050;13.678;2023-07-13T20:48:58;2.78;;;0.85;;
49340;SDS011;35209;51.050;13.678;2023-07-13T20:54:00;2.40;;;0.70;;
49340;SDS011;35209;51.050;13.678;2023-07-13T20:59:03;1.30;;;0.80;;
49340;SDS011;35209;51.050;13.678;2023-07-13T21:04:06;1.58;;;0.80;;
49340;SDS011;35209;51.050;13.678;2023-07-13T21:09:16;1.55;;;0.90;;
49340;SDS011;35209;51.050;13.678;2023-07-13T21:14:19;2.95;;;0.80;;
49340;SDS011;35209;51.050;13.678;2023-07-13T21:19:25;2.72;;;0.80;;
49340;SDS011;35209;51.050;13.678;2023-07-13T21:24:27;1.20;;;0.73;;
49340;SDS011;35209;51.050;13.678;2023-07-13T21:29:29;8.77;;;1.40;;
49340;SDS011;35209;51.050;13.678;2023-07-13T21:34:31;2.22;;;0.93;;
49340;SDS011;35209;51.050;13.678;2023-07-13T21:39:32;3.50;;;1.20;;
49340;SDS011;35209;51.050;13.678;2023-07-13T21:44:34;6.47;;;1.20;;
49340;SDS011;35209;51.050;13.678;2023-07-13T21:49:36;1.70;;;0.80;;
49340;SDS011;35209;51.050;13.678;2023-07-13T21:54:38;1.83;;;0.80;;
49340;SDS011;35209;51.050;13.678;2023-07-13T21:59:39;2.15;;;0.80;;
49340;SDS011;35209;51.050;13.678;2023-07-13T22:04:41;2.40;;;0.90;;
49340;SDS011;35209;51.050;13.678;2023-07-13T22:09:43;2.95;;;0.80;;
49340;SDS011;35209;51.050;13.678;2023-07-13T22:14:45;1.10;;;0.90;;
49340;SDS011;35209;51.050;13.678;2023-07-13T22:19:47;1.90;;;0.95;;
49340;SDS011;35209;51.050;13.678;2023-07-13T22:29:55;2.05;;;0.90;;
49340;SDS011;35209;51.050;13.678;2023-07-13T22:34:57;3.80;;;1.00;;
49340;SDS011;35209;51.050;13.678;2023-07-13T22:40:00;1.50;;;0.70;;
49340;SDS011;35209;51.050;13.678;2023-07-13T22:45:06;2.10;;;0.80;;
49340;SDS011;35209;51.050;13.678;2023-07-13T22:50:12;2.03;;;0.90;;
49340;SDS011;35209;51.050;13.678;2023-07-13T22:55:15;0.75;;;0.70;;
49340;SDS011;35209;51.050;13.678;2023-07-13T23:00:21;2.85;;;1.00;;
49340;SDS011;35209;51.050;13.678;2023-07-13T23:05:23;2.38;;;1.00;;
49340;SDS011;35209;51.050;13.678;2023-07-13T23:10:26;2.28;;;0.80;;
49340;SDS011;35209;51.050;13.678;2023-07-13T23:15:29;2.78;;;1.40;;
49340;SDS011;35209;51.050;13.678;2023-07-13T23:20:32;1.67;;;0.90;;
49340;SDS011;35209;51.050;13.678;2023-07-13T23:25:35;1.92;;;1.05;;
49340;SDS011;35209;51.050;13.678;2023-07-13T23:30:38;1.90;;;0.80;;
49340;SDS011;35209;51.050;13.678;2023-07-13T23:35:47;1.67;;;1.10;;
49340;SDS011;35209;51.050;13.678;2023-07-13T23:40:51;1.63;;;0.90;;
49340;SDS011;35209;51.050;13.678;2023-07-13T23:45:53;7.05;;;1.17;;
49340;SDS011;35209;51.050;13.678;2023-07-13T23:50:55;2.90;;;1.15;;
49340;SDS011;35209;51.050;13.678;2023-07-13T23:55:57;2.15;;;0.90;;
